createdAt,value
2018-05-11T00:03:01.333Z,83.90
2018-05-11T00:08:03.235Z,84.50
2018-05-11T00:13:05.040Z,84.10
2018-05-11T00:18:06.796Z,84.10
2018-05-11T00:23:08.349Z,84.00
2018-05-11T00:28:09.928Z,84.00
2018-05-11T00:33:11.606Z,82.90
2018-05-11T00:38:13.358Z,81.30
2018-05-11T00:43:15.855Z,76.90
2018-05-11T00:48:17.693Z,76.90
2018-05-11T00:53:19.203Z,77.90
2018-05-11T00:58:24.859Z,78.70
2018-05-11T01:03:33.593Z,79.20
2018-05-11T01:08:35.919Z,85.10
2018-05-11T01:13:37.733Z,85.10
2018-05-11T01:18:39.524Z,86.00
2018-05-11T01:23:42.023Z,86.40
2018-05-11T01:28:43.632Z,86.40
2018-05-11T01:33:45.367Z,86.00
2018-05-11T01:38:47.133Z,84.60
2018-05-11T01:43:48.932Z,83.70
2018-05-11T01:48:50.514Z,84.50
2018-05-11T01:53:52.976Z,83.50
2018-05-11T01:58:54.790Z,83.50
2018-05-11T02:03:56.360Z,84.50
2018-05-11T02:08:58.015Z,85.30
2018-05-11T02:13:59.876Z,85.20
2018-05-11T02:19:01.619Z,84.90
2018-05-11T02:24:04.111Z,86.10
2018-05-11T02:29:06.694Z,86.20
2018-05-11T02:34:09.191Z,85.40
2018-05-11T02:39:11.433Z,86.00
2018-05-11T02:44:13.176Z,85.80
2018-05-11T02:49:14.930Z,83.90
2018-05-11T02:54:16.604Z,85.20
2018-05-11T02:59:18.130Z,85.60
2018-05-11T03:04:19.950Z,85.00
2018-05-11T03:09:21.719Z,84.80
2018-05-11T03:14:23.495Z,83.90
2018-05-11T03:19:24.995Z,84.80
2018-05-11T03:24:26.819Z,85.30
2018-05-11T03:29:29.419Z,85.50
2018-05-11T03:34:31.901Z,86.60
2018-05-11T03:39:34.299Z,88.00
2018-05-11T03:44:36.850Z,87.50
2018-05-11T03:49:38.567Z,87.40
2018-05-11T03:54:40.331Z,87.10
2018-05-11T03:59:42.932Z,87.20
2018-05-11T04:05:03.859Z,87.20
2018-05-11T04:10:05.386Z,87.20
2018-05-11T04:15:07.092Z,86.40
2018-05-11T04:20:09.491Z,86.20
2018-05-11T04:25:11.147Z,85.40
2018-05-11T04:30:13.028Z,84.40
2018-05-11T04:35:15.281Z,80.70
2018-05-11T04:40:16.982Z,80.50
2018-05-11T04:45:19.464Z,72.50
2018-05-11T04:50:20.995Z,72.50
2018-05-11T04:55:22.727Z,64.60
2018-05-11T05:00:24.495Z,60.90
2018-05-11T05:05:26.158Z,56.50
2018-05-11T05:10:28.449Z,50.40
2018-05-11T05:15:30.224Z,50.40
2018-05-11T05:20:31.994Z,50.40
2018-05-11T05:25:33.866Z,49.90
2018-05-11T05:30:35.651Z,50.50
2018-05-11T05:35:37.293Z,50.80
2018-05-11T05:40:39.531Z,51.10
2018-05-11T05:45:41.099Z,51.10
2018-05-11T05:50:42.779Z,53.60
2018-05-11T05:55:44.296Z,54.90
2018-05-11T06:00:46.714Z,55.10
2018-05-11T06:05:48.456Z,55.10
2018-05-11T06:10:50.877Z,58.70
2018-05-11T06:15:52.511Z,58.80
2018-05-11T06:20:55.021Z,56.20
2018-05-11T06:25:56.534Z,56.10
2018-05-11T06:30:58.370Z,53.10
2018-05-11T06:35:59.919Z,52.20
2018-05-11T06:41:02.255Z,49.90
2018-05-11T06:46:03.764Z,49.80
2018-05-11T06:51:06.081Z,52.10
2018-05-11T06:56:07.856Z,52.10
2018-05-11T07:01:09.596Z,49.70
2018-05-11T07:06:12.059Z,48.10
2018-05-11T07:11:13.803Z,48.10
2018-05-11T07:16:15.357Z,50.70
2018-05-11T07:21:16.885Z,51.20
2018-05-11T07:26:19.327Z,53.40
2018-05-11T07:31:21.184Z,53.40
2018-05-11T07:36:22.936Z,52.80
2018-05-11T07:41:25.453Z,52.30
2018-05-11T07:46:27.204Z,52.30
2018-05-11T07:51:29.801Z,54.20
2018-05-11T07:56:31.579Z,54.10
2018-05-11T08:01:33.340Z,53.50
2018-05-11T08:06:35.846Z,51.30
2018-05-11T08:11:37.387Z,51.30
2018-05-11T08:16:39.903Z,49.70
2018-05-11T08:21:41.466Z,50.20
2018-05-11T08:26:43.370Z,50.90
2018-05-11T08:31:45.222Z,43.60
2018-05-11T08:36:46.975Z,42.00
2018-05-11T08:41:49.317Z,45.30
2018-05-11T08:46:51.056Z,45.30
2018-05-11T08:51:52.656Z,43.60
2018-05-11T08:56:54.194Z,43.40
2018-05-11T09:01:55.777Z,43.20
2018-05-11T09:06:57.524Z,43.40
2018-05-11T09:12:00.021Z,41.10
2018-05-11T09:17:01.794Z,41.00
2018-05-11T09:22:03.778Z,41.60
2018-05-11T09:27:05.437Z,42.40
2018-05-11T09:32:07.824Z,38.90
2018-05-11T09:37:15.218Z,37.90
2018-05-11T09:42:22.591Z,39.90
2018-05-11T09:47:28.667Z,41.30
2018-05-11T09:52:33.863Z,41.10
2018-05-11T09:57:38.378Z,42.30
2018-05-11T10:02:44.635Z,46.20
2018-05-11T10:07:51.834Z,44.60
2018-05-11T10:12:58.202Z,45.10
2018-05-11T10:18:07.767Z,44.30
2018-05-11T10:23:13.066Z,45.20
2018-05-11T10:28:19.206Z,46.10
2018-05-11T10:33:25.318Z,39.20
2018-05-11T10:38:31.906Z,40.60
2018-05-11T10:43:39.541Z,40.50
2018-05-11T10:48:47.305Z,37.60
2018-05-11T10:53:52.551Z,39.40
2018-05-11T10:58:59.377Z,38.30
2018-05-11T11:04:04.870Z,36.90
2018-05-11T11:09:10.138Z,36.80
2018-05-11T11:14:15.458Z,37.90
2018-05-11T11:19:22.935Z,36.30
2018-05-11T11:24:31.162Z,37.70
2018-05-11T11:29:32.865Z,38.60
2018-05-11T11:34:34.859Z,34.00
2018-05-11T11:39:36.612Z,35.20
2018-05-11T11:44:38.286Z,36.20
2018-05-11T11:49:40.060Z,36.30
2018-05-11T11:54:43.568Z,38.50
2018-05-11T11:59:46.936Z,35.70
2018-05-11T12:04:50.476Z,39.20
2018-05-11T12:09:52.928Z,34.70
2018-05-11T12:14:54.731Z,34.00
2018-05-11T12:19:56.539Z,34.60
2018-05-11T12:24:58.077Z,32.30
2018-05-11T12:30:00.697Z,36.30
2018-05-11T12:35:02.365Z,35.70
2018-05-11T12:40:04.425Z,35.80
2018-05-11T12:45:07.055Z,34.60
2018-05-11T12:50:08.710Z,34.60
2018-05-11T12:55:10.293Z,35.80
2018-05-11T13:00:11.987Z,34.10
2018-05-11T13:05:13.741Z,34.00
2018-05-11T13:10:15.382Z,33.80
2018-05-11T13:15:17.989Z,35.20
2018-05-11T13:20:19.755Z,35.20
2018-05-11T13:25:22.053Z,33.80
2018-05-11T13:30:23.827Z,33.80
2018-05-11T13:35:25.608Z,35.60
2018-05-11T13:40:27.571Z,35.20
2018-05-11T13:45:29.361Z,35.80
2018-05-11T13:50:31.201Z,34.70
2018-05-11T13:55:33.732Z,36.40
2018-05-11T14:00:35.709Z,36.40
2018-05-11T14:05:37.471Z,35.20
2018-05-11T14:10:39.245Z,38.00
2018-05-11T14:15:40.802Z,37.10
2018-05-11T14:20:42.486Z,41.70
2018-05-11T14:25:44.259Z,37.50
2018-05-11T14:30:46.021Z,35.70
2018-05-11T14:35:47.793Z,35.30
2018-05-11T14:40:49.571Z,36.70
2018-05-11T14:45:51.494Z,39.10
2018-05-11T14:50:53.233Z,38.40
2018-05-11T14:55:54.984Z,39.30
2018-05-11T15:00:57.482Z,39.30
2018-05-11T15:05:59.081Z,39.30
2018-05-11T15:11:00.770Z,39.10
2018-05-11T15:16:02.373Z,37.70
2018-05-11T15:21:04.677Z,35.00
2018-05-11T15:26:06.250Z,35.00
2018-05-11T15:31:07.878Z,35.50
2018-05-11T15:36:09.703Z,34.60
2018-05-11T15:41:11.654Z,35.50
2018-05-11T15:46:13.988Z,37.40
2018-05-11T15:51:15.716Z,37.30
2018-05-11T15:56:25.175Z,37.70
2018-05-11T16:01:26.855Z,37.70
2018-05-11T16:06:35.688Z,38.10
2018-05-11T16:11:37.359Z,39.00
2018-05-11T16:16:39.645Z,39.60
2018-05-11T16:21:41.917Z,38.10
2018-05-11T16:26:44.231Z,38.60
2018-05-11T16:31:45.992Z,37.90
2018-05-11T16:36:48.464Z,37.40
2018-05-11T16:41:51.082Z,37.80
2018-05-11T16:46:52.856Z,37.80
2018-05-11T16:51:54.645Z,38.40
2018-05-11T16:56:56.819Z,39.00
2018-05-11T17:01:58.368Z,37.50
2018-05-11T17:07:00.879Z,38.70
2018-05-11T17:12:02.735Z,38.70
2018-05-11T17:17:05.162Z,39.20
2018-05-11T17:22:07.030Z,39.20
2018-05-11T17:27:08.575Z,38.90
2018-05-11T17:32:10.476Z,39.50
2018-05-11T17:37:12.119Z,39.70
2018-05-11T17:42:13.691Z,39.20
2018-05-11T17:47:15.433Z,40.40
2018-05-11T17:52:17.338Z,44.30
2018-05-11T17:57:19.113Z,47.10
2018-05-11T18:02:20.677Z,48.70
2018-05-11T18:07:22.392Z,48.30
2018-05-11T18:12:24.283Z,47.40
2018-05-11T18:17:25.923Z,46.30
2018-05-11T18:22:27.494Z,47.70
2018-05-11T18:27:29.246Z,47.20
2018-05-11T18:32:30.859Z,51.00
2018-05-11T18:37:32.723Z,51.70
2018-05-11T18:42:34.440Z,51.60
2018-05-11T18:47:36.742Z,53.80
2018-05-11T18:52:39.004Z,53.70
2018-05-11T18:57:41.372Z,53.80
2018-05-11T19:02:43.102Z,53.70
2018-05-11T19:07:44.702Z,55.20
2018-05-11T19:12:46.513Z,56.30
2018-05-11T19:17:48.877Z,56.00
2018-05-11T19:22:50.526Z,55.90
2018-05-11T19:27:53.561Z,56.30
2018-05-11T19:32:55.226Z,57.60
2018-05-11T19:37:56.818Z,57.70
2018-05-11T19:42:59.267Z,59.00
2018-05-11T19:48:01.966Z,60.50
2018-05-11T19:53:03.859Z,60.50
2018-05-11T19:58:05.482Z,59.90
2018-05-11T20:03:07.246Z,60.50
2018-05-11T20:08:08.995Z,62.00
2018-05-11T20:13:11.312Z,60.40
2018-05-11T20:18:13.160Z,60.40
2018-05-11T20:23:14.953Z,60.00
2018-05-11T20:28:16.519Z,60.20
2018-05-11T20:33:18.967Z,59.80
2018-05-11T20:38:21.944Z,59.70
2018-05-11T20:43:23.692Z,59.90
2018-05-11T20:48:25.444Z,60.10
2018-05-11T20:53:28.035Z,61.10
2018-05-11T20:58:29.824Z,61.00
2018-05-11T21:03:31.592Z,61.70
2018-05-11T21:08:33.339Z,63.00
2018-05-11T21:13:35.867Z,62.70
2018-05-11T21:18:37.628Z,62.70
2018-05-11T21:23:39.259Z,63.20
2018-05-11T21:28:41.008Z,63.90
2018-05-11T21:33:42.849Z,64.40
2018-05-11T21:38:44.916Z,65.20
2018-05-11T21:43:47.950Z,67.10
2018-05-11T21:48:49.843Z,67.00
2018-05-11T21:53:51.447Z,67.50
2018-05-11T21:58:53.834Z,67.20
2018-05-11T22:03:56.366Z,66.90
2018-05-11T22:08:58.174Z,66.80
2018-05-11T22:14:00.019Z,66.80
2018-05-11T22:19:01.606Z,66.50
2018-05-11T22:24:03.683Z,66.70
2018-05-11T22:29:05.440Z,66.80
2018-05-11T22:34:07.209Z,67.70
2018-05-11T22:39:08.810Z,67.00
2018-05-11T22:44:10.408Z,66.60
2018-05-11T22:49:12.186Z,67.00
2018-05-11T22:54:13.699Z,67.40
2018-05-11T22:59:27.708Z,68.20
2018-05-11T23:04:30.930Z,68.90
2018-05-11T23:09:36.442Z,69.30
2018-05-11T23:14:42.158Z,69.00
2018-05-11T23:19:47.822Z,69.70
2018-05-11T23:24:54.033Z,70.70
2018-05-11T23:30:01.238Z,70.10
2018-05-11T23:35:09.310Z,70.10
2018-05-11T23:40:17.893Z,69.80
2018-05-11T23:45:32.717Z,70.50
2018-05-11T23:50:35.327Z,70.90
2018-05-11T23:55:41.742Z,72.70
